createdAt,value
2023-03-30T00:04:27.666Z,10.10
2023-03-30T00:10:30.454Z,10.70
2023-03-30T00:16:33.202Z,9.65
2023-03-30T00:22:35.754Z,7.55
2023-03-30T00:28:38.220Z,7.50
2023-03-30T00:34:41.357Z,7.82
2023-03-30T00:46:53.314Z,17.70
2023-03-30T00:52:59.093Z,9.73
2023-03-30T00:59:02.889Z,10.95
2023-03-30T01:05:06.688Z,13.13
2023-03-30T01:11:09.135Z,8.95
2023-03-30T01:23:38.105Z,9.65
2023-03-30T01:29:43.142Z,8.38
2023-03-30T01:35:54.719Z,6.07
2023-03-30T01:42:04.044Z,9.25
2023-03-30T01:48:10.881Z,15.55
2023-03-30T01:54:33.220Z,9.52
2023-03-30T02:00:38.516Z,8.03
2023-03-30T02:06:46.854Z,9.13
2023-03-30T02:12:50.662Z,6.78
2023-03-30T02:18:55.109Z,9.27
2023-03-30T02:24:58.720Z,8.50
2023-03-30T02:31:01.539Z,10.60
2023-03-30T02:37:25.373Z,18.02
2023-03-30T02:43:53.743Z,9.35
2023-03-30T02:50:02.450Z,8.93
2023-03-30T02:56:37.899Z,6.32
2023-03-30T03:02:49.039Z,6.78
2023-03-30T03:09:00.011Z,8.43
2023-03-30T03:15:06.527Z,9.30
2023-03-30T03:21:17.049Z,17.02
2023-03-30T03:27:19.495Z,6.82
2023-03-30T03:33:38.172Z,7.05
2023-03-30T03:39:50.349Z,6.70
2023-03-30T03:45:53.900Z,8.55
2023-03-30T03:51:56.338Z,9.23
2023-03-30T03:57:58.680Z,10.50
2023-03-30T04:04:00.785Z,5.57
2023-03-30T04:10:07.742Z,7.72
2023-03-30T04:16:20.986Z,6.03
2023-03-30T04:22:46.579Z,5.32
2023-03-30T04:29:08.471Z,10.98
2023-03-30T04:35:37.039Z,8.63
2023-03-30T04:42:06.603Z,9.43
2023-03-30T04:54:54.299Z,9.75
2023-03-30T05:01:26.024Z,12.27
2023-03-30T05:07:31.531Z,10.80
2023-03-30T05:13:54.827Z,9.97
2023-03-30T05:20:18.863Z,8.45
2023-03-30T05:26:47.561Z,17.52
2023-03-30T05:33:22.839Z,14.23
2023-03-30T05:39:45.360Z,22.13
2023-03-30T05:46:08.185Z,14.18
2023-03-30T05:52:33.574Z,13.50
2023-03-30T05:58:59.204Z,14.95
2023-03-30T06:05:20.748Z,13.68
2023-03-30T06:11:23.261Z,28.83
2023-03-30T06:18:04.380Z,14.20
2023-03-30T06:24:10.188Z,11.90
2023-03-30T06:30:16.029Z,15.88
2023-03-30T06:36:22.574Z,30.75
2023-03-30T06:42:44.854Z,11.88
2023-03-30T06:49:07.773Z,14.73
2023-03-30T06:55:18.947Z,19.73
2023-03-30T07:01:22.095Z,9.07
2023-03-30T07:07:45.821Z,9.13
2023-03-30T07:13:48.348Z,9.05
2023-03-30T07:19:50.857Z,8.95
2023-03-30T07:25:53.526Z,5.60
2023-03-30T07:32:02.162Z,5.00
2023-03-30T07:38:07.978Z,5.95
2023-03-30T07:44:15.729Z,10.38
2023-03-30T07:50:18.286Z,6.90
2023-03-30T07:56:21.713Z,7.35
2023-03-30T08:02:28.411Z,5.95
2023-03-30T08:08:33.574Z,11.68
2023-03-30T08:14:36.750Z,8.15
2023-03-30T08:20:40.064Z,9.68
2023-03-30T08:26:42.560Z,4.63
2023-03-30T08:32:45.011Z,4.22
2023-03-30T08:38:47.230Z,6.15
2023-03-30T08:44:55.526Z,7.50
2023-03-30T08:50:59.175Z,11.13
2023-03-30T08:57:12.052Z,8.98
2023-03-30T09:03:30.254Z,8.63
2023-03-30T09:09:42.987Z,6.65
2023-03-30T09:16:09.804Z,17.70
2023-03-30T09:22:14.138Z,5.40
2023-03-30T09:28:21.107Z,6.05
2023-03-30T09:34:41.499Z,5.82
2023-03-30T09:40:46.675Z,13.02
2023-03-30T09:46:50.667Z,4.82
2023-03-30T09:52:57.901Z,15.02
2023-03-30T09:59:20.805Z,7.43
2023-03-30T10:05:23.381Z,7.28
2023-03-30T10:11:37.965Z,5.68
2023-03-30T10:17:41.759Z,4.88
2023-03-30T10:23:45.717Z,5.80
2023-03-30T10:29:51.423Z,6.68
2023-03-30T10:35:56.827Z,10.98
2023-03-30T10:42:02.512Z,6.18
2023-03-30T10:48:23.742Z,5.65
2023-03-30T10:54:53.334Z,4.70
2023-03-30T11:01:06.696Z,4.32
2023-03-30T11:07:28.369Z,6.05
2023-03-30T11:13:57.279Z,4.07
2023-03-30T11:20:10.254Z,11.88
2023-03-30T11:26:18.431Z,3.45
2023-03-30T11:32:38.741Z,5.13
2023-03-30T11:38:54.775Z,5.22
2023-03-30T11:44:57.642Z,4.97
2023-03-30T11:51:32.920Z,4.20
2023-03-30T11:57:44.338Z,6.30
2023-03-30T12:04:15.076Z,3.90
2023-03-30T12:10:24.966Z,6.93
2023-03-30T12:16:40.605Z,15.50
2023-03-30T12:23:20.121Z,2.63
2023-03-30T12:29:58.479Z,5.90
2023-03-30T12:36:05.912Z,6.38
2023-03-30T12:42:28.733Z,2.67
2023-03-30T12:48:52.039Z,4.75
2023-03-30T12:55:17.451Z,18.50
2023-03-30T13:01:38.495Z,7.28
2023-03-30T13:07:42.014Z,7.97
2023-03-30T13:13:53.724Z,19.45
2023-03-30T13:20:29.679Z,5.88
2023-03-30T13:26:45.024Z,14.80
2023-03-30T13:33:00.215Z,9.30
2023-03-30T13:39:21.406Z,14.60
2023-03-30T13:45:29.921Z,6.15
2023-03-30T13:51:33.306Z,6.47
2023-03-30T13:57:41.640Z,4.72
2023-03-30T14:03:50.128Z,6.25
2023-03-30T14:10:12.792Z,6.22
2023-03-30T14:16:21.790Z,11.63
2023-03-30T14:22:27.805Z,5.82
2023-03-30T14:28:34.701Z,3.10
2023-03-30T14:34:37.279Z,4.93
2023-03-30T14:40:40.879Z,4.32
2023-03-30T14:46:47.327Z,4.70
2023-03-30T14:52:50.875Z,4.97
2023-03-30T14:58:55.808Z,3.85
2023-03-30T15:04:59.465Z,5.32
2023-03-30T15:11:08.357Z,7.30
2023-03-30T15:17:18.221Z,9.77
2023-03-30T15:23:20.893Z,6.78
2023-03-30T15:29:24.427Z,4.75
2023-03-30T15:35:34.834Z,6.82
2023-03-30T15:42:07.660Z,8.20
2023-03-30T15:48:12.229Z,6.30
2023-03-30T15:54:22.560Z,13.20
2023-03-30T16:00:28.740Z,6.55
2023-03-30T16:06:31.154Z,10.27
2023-03-30T16:12:42.622Z,5.10
2023-03-30T16:18:45.931Z,4.03
2023-03-30T16:24:48.773Z,5.78
2023-03-30T16:36:55.548Z,6.68
2023-03-30T16:42:58.158Z,13.77
2023-03-30T16:49:01.017Z,7.88
2023-03-30T17:01:06.174Z,10.85
2023-03-30T17:07:09.804Z,15.32
2023-03-30T17:13:12.150Z,8.55
2023-03-30T17:19:14.987Z,11.43
2023-03-30T17:31:23.958Z,15.48
2023-03-30T17:43:29.196Z,12.75
2023-03-30T17:55:34.615Z,23.17
2023-03-30T18:01:37.100Z,24.23
2023-03-30T18:07:39.804Z,26.63
2023-03-30T18:13:44.973Z,19.85
2023-03-30T18:19:47.360Z,23.38
2023-03-30T18:25:49.871Z,21.80
2023-03-30T18:31:52.257Z,21.80
2023-03-30T18:37:55.082Z,34.45
2023-03-30T18:49:59.381Z,29.02
2023-03-30T18:56:02.137Z,24.70
2023-03-30T19:02:04.885Z,14.73
2023-03-30T19:08:07.820Z,19.60
2023-03-30T19:14:11.848Z,16.27
2023-03-30T19:20:15.290Z,19.23
2023-03-30T19:26:17.527Z,16.85
2023-03-30T19:32:20.005Z,18.23
2023-03-30T19:38:22.236Z,20.40
2023-03-30T19:44:24.542Z,21.52
2023-03-30T19:50:29.493Z,19.77
2023-03-30T19:56:32.650Z,15.10
2023-03-30T20:02:35.230Z,17.33
2023-03-30T20:14:40.551Z,22.23
2023-03-30T20:20:42.974Z,25.15
2023-03-30T20:26:45.174Z,23.38
2023-03-30T20:32:56.281Z,17.95
2023-03-30T20:39:02.777Z,17.75
2023-03-30T20:51:14.087Z,15.90
2023-03-30T20:57:16.426Z,25.13
2023-03-30T21:03:20.760Z,23.02
2023-03-30T21:09:23.301Z,17.63
2023-03-30T21:15:25.708Z,19.20
2023-03-30T21:21:28.074Z,25.58
2023-03-30T21:27:30.306Z,14.55
2023-03-30T21:33:32.704Z,19.60
2023-03-30T21:39:34.931Z,22.50
2023-03-30T21:45:37.652Z,18.63
2023-03-30T21:51:39.866Z,14.68
2023-03-30T21:57:42.103Z,13.77
2023-03-30T22:03:48.018Z,19.77
2023-03-30T22:09:50.478Z,13.85
2023-03-30T22:16:13.036Z,13.68
2023-03-30T22:22:15.588Z,11.23
2023-03-30T22:28:18.054Z,14.60
2023-03-30T22:34:20.241Z,25.05
2023-03-30T22:40:22.460Z,11.07
2023-03-30T22:46:26.955Z,11.60
2023-03-30T22:52:30.440Z,10.93
2023-03-30T22:58:32.834Z,18.52
2023-03-30T23:04:35.128Z,16.75
2023-03-30T23:10:37.909Z,8.73
2023-03-30T23:22:42.683Z,15.32
2023-03-30T23:28:45.606Z,22.52
2023-03-30T23:34:48.042Z,21.02
2023-03-30T23:40:50.457Z,19.98
2023-03-30T23:46:53.145Z,12.27
2023-03-30T23:58:57.183Z,14.48
